Time,TemperatureF,DewpointF,PressureIn,WindDirection,WindDirectionDegrees,WindSpeedMPH,WindSpeedGustMPH,Humidity,HourlyPrecipIn,Conditions,Clouds,dailyrainin,SolarRadiationWatts/m^2,SoftwareType,DateUTC
2013-12-04 00:00:00,54.9,53.8,29.97,SSW,202,2.0,0.0,96,0.03,,CLR,0.03,0.00,VWS V15.00,2013-12-04 05:00:00,
2013-12-04 00:01:00,53.4,52.0,29.98,SSW,196,7.0,0.0,95,0.01,,-RA,0.00,0.00,VWS V14.01,2013-12-04 05:01:00,
2013-12-04 00:02:00,53.4,52.0,29.98,SSW,200,7.0,0.0,95,0.01,,-RA,0.00,0.00,VWS V14.01,2013-12-04 05:02:00,
2013-12-04 00:03:00,53.5,52.1,29.98,SSW,203,4.0,0.0,95,0.01,,-RA,0.00,0.00,VWS V14.01,2013-12-04 05:03:00,
2013-12-04 00:04:00,53.5,52.1,29.98,SSW,193,6.0,0.0,95,0.01,,-RA,0.00,0.00,VWS V14.01,2013-12-04 05:04:00,
2013-12-04 00:05:00,55.0,53.9,29.97,SSE,151,6.0,0.0,96,0.04,,CLR,0.04,0.00,VWS V15.00,2013-12-04 05:05:00,
2013-12-04 00:09:00,53.6,52.2,29.98,South,187,5.0,0.0,95,0.00,,-RA,0.00,0.00,VWS V14.01,2013-12-04 05:09:00,
2013-12-04 00:10:00,55.1,54.0,29.97,SSW,209,3.0,0.0,96,0.04,,CLR,0.04,0.00,VWS V15.00,2013-12-04 05:10:00,
2013-12-04 00:14:00,53.7,52.3,29.97,SSW,209,4.0,0.0,95,0.00,,-RA,0.00,0.00,VWS V14.01,2013-12-04 05:14:00,
2013-12-04 00:15:00,55.1,54.0,29.97,South,190,5.0,0.0,96,0.04,,CLR,0.04,0.00,VWS V15.00,2013-12-04 05:15:00,
2013-12-04 00:19:00,53.9,52.5,29.97,SSW,207,6.0,0.0,95,0.00,,-RA,0.00,0.00,VWS V14.01,2013-12-04 05:19:00,
2013-12-04 00:20:00,55.1,54.0,29.97,SSE,149,2.0,0.0,96,0.04,,CLR,0.04,0.00,VWS V15.00,2013-12-04 05:20:00,
2013-12-04 00:24:00,54.0,52.6,29.97,SSW,213,4.0,0.0,95,0.00,,-RA,0.00,0.00,VWS V14.01,2013-12-04 05:24:00,
2013-12-04 00:25:00,55.1,54.0,29.97,South,172,2.0,0.0,96,0.04,,CLR,0.04,0.00,VWS V15.00,2013-12-04 05:25:00,
2013-12-04 00:29:00,54.1,52.7,29.97,South,187,1.0,0.0,95,0.00,,-RA,0.00,0.00,VWS V14.01,2013-12-04 05:29:00,
2013-12-04 00:30:00,55.1,54.0,29.97,SW,228,4.0,0.0,96,0.04,,CLR,0.04,0.00,VWS V15.00,2013-12-04 05:30:00,
2013-12-04 00:34:00,54.2,52.8,29.97,SW,219,5.0,0.0,95,0.00,,-RA,0.00,0.00,VWS V14.01,2013-12-04 05:34:00,
2013-12-04 00:35:00,55.1,54.0,29.97,SW,217,3.0,0.0,96,0.04,,CLR,0.04,0.00,VWS V15.00,2013-12-04 05:35:00,
2013-12-04 00:39:00,54.3,52.9,29.97,SSW,192,5.0,0.0,95,0.00,,-RA,0.00,0.00,VWS V14.01,2013-12-04 05:39:00,
2013-12-04 00:40:00,55.1,54.0,29.97,SW,224,3.0,0.0,96,0.04,,CLR,0.04,0.00,VWS V15.00,2013-12-04 05:40:00,
2013-12-04 00:44:00,54.5,53.4,29.97,SSW,202,5.0,0.0,96,0.00,,-RA,0.00,0.00,VWS V14.01,2013-12-04 05:44:00,
2013-12-04 00:45:00,55.2,54.1,29.97,SSW,206,1.0,0.0,96,0.04,,CLR,0.04,0.00,VWS V15.00,2013-12-04 05:45:00,
2013-12-04 00:49:00,54.7,53.6,29.97,SSW,212,7.0,0.0,96,0.01,,-RA,0.01,0.00,VWS V14.01,2013-12-04 05:49:00,
2013-12-04 00:50:00,55.2,54.1,29.98,SW,215,3.0,0.0,96,0.04,,CLR,0.04,0.00,VWS V15.00,2013-12-04 05:50:00,
2013-12-04 00:54:00,54.8,53.7,29.97,South,171,6.0,0.0,96,0.02,,-RA,0.02,0.00,VWS V14.01,2013-12-04 05:54:00,
2013-12-04 00:55:00,55.2,54.1,29.98,SSW,212,6.0,0.0,96,0.03,,CLR,0.04,0.00,VWS V15.00,2013-12-04 05:55:00,
2013-12-04 00:59:00,54.9,53.8,29.97,SSW,202,2.0,0.0,96,0.03,,-RA,0.03,0.00,VWS V14.01,2013-12-04 05:59:00,
2013-12-04 01:00:00,55.2,54.1,29.98,South,177,2.0,0.0,96,0.02,,CLR,0.04,0.00,VWS V15.00,2013-12-04 06:00:00,
2013-12-04 01:04:00,55.0,53.9,29.97,SSE,151,6.0,0.0,96,0.04,,-RA,0.04,0.00,VWS V14.01,2013-12-04 06:04:00,
2013-12-04 01:05:00,55.3,54.2,29.98,SSW,198,3.0,0.0,96,0.01,,CLR,0.04,0.00,VWS V15.00,2013-12-04 06:05:00,
2013-12-04 01:09:00,55.1,54.0,29.97,SSW,209,3.0,0.0,96,0.04,,-RA,0.04,0.00,VWS V14.01,2013-12-04 06:09:00,
2013-12-04 01:10:00,55.3,54.2,29.98,SW,235,5.0,0.0,96,0.00,,CLR,0.04,0.00,VWS V15.00,2013-12-04 06:10:00,
2013-12-04 01:14:00,55.1,54.0,29.97,South,190,5.0,0.0,96,0.04,,-RA,0.04,0.00,VWS V14.01,2013-12-04 06:14:00,
2013-12-04 01:15:00,55.4,54.3,29.98,South,187,2.0,0.0,96,0.00,,CLR,0.04,0.00,VWS V15.00,2013-12-04 06:15:00,
2013-12-04 01:19:00,55.1,54.0,29.97,SSE,149,2.0,0.0,96,0.04,,-RA,0.04,0.00,VWS V14.01,2013-12-04 06:19:00,
2013-12-04 01:20:00,55.5,54.4,29.99,SW,227,4.0,0.0,96,0.00,,CLR,0.04,0.00,VWS V15.00,2013-12-04 06:20:00,
2013-12-04 01:24:00,55.1,54.0,29.97,South,172,2.0,0.0,96,0.04,,-RA,0.04,0.00,VWS V14.01,2013-12-04 06:24:00,
2013-12-04 01:25:00,55.6,54.5,29.99,South,182,3.0,0.0,96,0.00,,CLR,0.04,0.00,VWS V15.00,2013-12-04 06:25:00,
2013-12-04 01:29:00,55.1,54.0,29.97,SW,228,4.0,0.0,96,0.04,,-RA,0.04,0.00,VWS V14.01,2013-12-04 06:29:00,
2013-12-04 01:30:00,55.7,54.6,29.99,SSW,206,4.0,0.0,96,0.00,,CLR,0.04,0.00,VWS V15.00,2013-12-04 06:30:00,
2013-12-04 01:35:00,55.1,54.0,29.97,SW,217,3.0,0.0,96,0.04,,-RA,0.04,0.00,VWS V14.01,2013-12-04 06:35:00,
2013-12-04 01:40:00,55.1,54.0,29.97,SSW,195,3.0,0.0,96,0.04,,-RA,0.04,0.00,VWS V14.01,2013-12-04 06:40:00,
2013-12-04 01:45:00,55.2,54.1,29.97,SSW,206,1.0,0.0,96,0.04,,-RA,0.04,0.00,VWS V14.01,2013-12-04 06:45:00,
2013-12-04 01:50:00,55.2,54.1,29.98,SSW,204,3.0,0.0,96,0.03,,-RA,0.04,0.00,VWS V14.01,2013-12-04 06:50:00,
2013-12-04 01:55:00,55.2,54.1,29.98,SSW,203,6.0,0.0,96,0.02,,-RA,0.04,0.00,VWS V14.01,2013-12-04 06:55:00,
2013-12-04 02:00:00,55.3,54.2,29.98,SSW,211,1.0,0.0,96,0.01,,-RA,0.04,0.00,VWS V14.01,2013-12-04 07:00:00,
2013-12-04 02:05:00,55.3,54.2,29.98,South,188,3.0,0.0,96,0.00,,-RA,0.04,0.00,VWS V14.01,2013-12-04 07:05:00,
2013-12-04 02:10:00,55.3,54.2,29.98,SW,219,4.0,0.0,96,0.00,,-RA,0.04,0.00,VWS V14.01,2013-12-04 07:10:00,
2013-12-04 02:15:00,55.4,54.3,29.99,SSW,202,4.0,0.0,96,0.00,,-RA,0.04,0.00,VWS V14.01,2013-12-04 07:15:00,
2013-12-04 02:20:00,55.5,54.4,29.99,SW,219,4.0,0.0,96,0.00,,-RA,0.04,0.00,VWS V14.01,2013-12-04 07:20:00,
2013-12-04 02:25:00,55.7,54.6,29.99,South,180,4.0,0.0,96,0.00,,-RA,0.04,0.00,VWS V14.01,2013-12-04 07:25:00,
2013-12-04 02:30:00,55.7,54.6,29.99,South,190,3.0,0.0,96,0.00,,-RA,0.04,0.00,VWS V14.01,2013-12-04 07:30:00,
2013-12-04 02:35:00,55.7,54.6,29.99,SSW,207,4.0,0.0,96,0.00,,-RA,0.04,0.00,VWS V14.01,2013-12-04 07:35:00,
2013-12-04 02:40:00,55.7,54.6,29.98,South,189,3.0,0.0,96,0.00,,,0.04,0.00,VWS V14.01,2013-12-04 07:40:00,
2013-12-04 02:45:00,55.7,54.6,29.98,SSW,196,2.0,0.0,96,0.00,,,0.04,0.00,VWS V14.01,2013-12-04 07:45:00,
2013-12-04 02:50:00,55.6,54.5,29.99,South,178,2.0,0.0,96,0.00,,,0.04,0.00,VWS V14.01,2013-12-04 07:50:00,
2013-12-04 02:55:00,55.6,54.5,29.99,SW,216,2.0,0.0,96,0.00,,,0.04,0.00,VWS V14.01,2013-12-04 07:55:00,
2013-12-04 03:00:00,55.6,54.5,29.99,South,182,2.0,0.0,96,0.00,,,0.04,0.00,VWS V14.01,2013-12-04 08:00:00,
2013-12-04 03:05:00,55.6,54.5,29.99,South,179,1.0,0.0,96,0.00,,,0.04,0.00,VWS V14.01,2013-12-04 08:05:00,
2013-12-04 03:10:00,55.6,54.5,29.99,SSE,159,2.0,0.0,96,0.00,,,0.04,0.00,VWS V14.01,2013-12-04 08:10:00,
2013-12-04 03:15:00,55.5,54.4,29.99,South,171,0.0,0.0,96,0.00,,,0.04,0.00,VWS V14.01,2013-12-04 08:15:00,
2013-12-04 03:20:00,55.5,54.4,29.99,South,180,1.0,0.0,96,0.00,,,0.04,0.00,VWS V14.01,2013-12-04 08:20:00,
2013-12-04 03:25:00,55.5,54.4,29.99,SSE,156,1.0,0.0,96,0.00,,,0.04,0.00,VWS V14.01,2013-12-04 08:25:00,
2013-12-04 03:30:00,55.5,54.4,29.99,South,182,1.0,0.0,96,0.00,,,0.04,0.00,VWS V14.01,2013-12-04 08:30:00,
2013-12-04 03:35:00,55.5,54.4,29.99,SSW,197,1.0,0.0,96,0.00,,,0.04,0.00,VWS V14.01,2013-12-04 08:35:00,
2013-12-04 03:40:00,55.5,54.4,29.99,SSE,161,1.0,0.0,96,0.00,,,0.04,0.00,VWS V14.01,2013-12-04 08:40:00,
2013-12-04 03:45:00,55.5,54.4,29.98,ESE,121,3.0,0.0,96,0.00,,,0.04,0.00,VWS V14.01,2013-12-04 08:45:00,
2013-12-04 03:50:00,55.4,54.3,29.98,SE,142,3.0,0.0,96,0.00,,,0.04,0.00,VWS V14.01,2013-12-04 08:50:00,
2013-12-04 03:55:00,55.9,54.8,29.96,SSE,163,2.0,0.0,96,0.02,,CLR,0.06,0.00,VWS V15.00,2013-12-04 08:55:00,
2013-12-04 03:56:00,55.4,54.3,29.98,SSE,153,1.0,0.0,96,0.00,,,0.04,0.00,VWS V14.01,2013-12-04 08:56:00,
2013-12-04 04:00:00,55.9,54.8,29.96,SSW,202,3.0,0.0,96,0.02,,CLR,0.06,0.00,VWS V15.00,2013-12-04 09:00:00,
2013-12-04 04:01:00,55.4,54.3,29.98,SSW,196,1.0,0.0,96,0.00,,,0.04,0.00,VWS V14.01,2013-12-04 09:01:00,
2013-12-04 04:05:00,55.9,54.8,29.96,SSE,153,2.0,0.0,96,0.02,,CLR,0.06,0.00,VWS V15.00,2013-12-04 09:05:00,
2013-12-04 04:06:00,55.4,54.3,29.98,South,181,1.0,0.0,96,0.01,,,0.05,0.00,VWS V14.01,2013-12-04 09:06:00,
2013-12-04 04:10:00,55.9,54.8,29.96,SE,139,3.0,0.0,96,0.02,,CLR,0.06,0.00,VWS V15.00,2013-12-04 09:10:00,
2013-12-04 04:11:00,55.5,54.4,29.98,South,178,4.0,0.0,96,0.01,,,0.05,0.00,VWS V14.01,2013-12-04 09:11:00,
2013-12-04 04:15:00,55.9,54.8,29.96,SSW,210,2.0,0.0,96,0.01,,CLR,0.06,0.00,VWS V15.00,2013-12-04 09:15:00,
2013-12-04 04:16:00,55.6,54.5,29.97,South,184,5.0,0.0,96,0.01,,,0.05,0.00,VWS V14.01,2013-12-04 09:16:00,
2013-12-04 04:20:00,55.9,54.8,29.96,SSE,159,1.0,0.0,96,0.01,,CLR,0.06,0.00,VWS V15.00,2013-12-04 09:20:00,
2013-12-04 04:21:00,55.7,54.6,29.97,SSW,194,2.0,0.0,96,0.01,,,0.05,0.00,VWS V14.01,2013-12-04 09:21:00,
2013-12-04 04:25:00,55.9,54.8,29.96,SSE,154,1.0,0.0,96,0.01,,CLR,0.06,0.00,VWS V15.00,2013-12-04 09:25:00,
2013-12-04 04:26:00,55.7,54.6,29.97,South,180,3.0,0.0,96,0.01,,,0.05,0.00,VWS V14.01,2013-12-04 09:26:00,
2013-12-04 04:30:00,55.9,54.8,29.96,South,180,1.0,0.0,96,0.01,,CLR,0.06,0.00,VWS V15.00,2013-12-04 09:30:00,
2013-12-04 04:31:00,55.8,54.7,29.97,SSE,153,3.0,0.0,96,0.01,,,0.05,0.00,VWS V14.01,2013-12-04 09:31:00,
2013-12-04 04:35:00,55.9,54.8,29.96,SSE,150,1.0,0.0,96,0.01,,CLR,0.06,0.00,VWS V15.00,2013-12-04 09:35:00,
2013-12-04 04:36:00,55.8,54.7,29.97,SSE,162,2.0,0.0,96,0.02,,,0.06,0.00,VWS V14.01,2013-12-04 09:36:00,
2013-12-04 04:40:00,55.9,54.8,29.97,SW,214,2.0,0.0,96,0.00,,CLR,0.06,0.00,VWS V15.00,2013-12-04 09:40:00,
2013-12-04 04:41:00,55.8,54.7,29.96,South,177,2.0,0.0,96,0.02,,,0.06,0.00,VWS V14.01,2013-12-04 09:41:00,
2013-12-04 04:45:00,56.0,55.2,29.97,South,186,4.0,0.0,97,0.00,,CLR,0.06,0.00,VWS V15.00,2013-12-04 09:45:00,
2013-12-04 04:46:00,55.8,54.7,29.96,WSW,237,3.0,0.0,96,0.02,,,0.06,0.00,VWS V14.01,2013-12-04 09:46:00,
2013-12-04 04:50:00,56.0,55.2,29.97,SSW,192,2.0,0.0,97,0.00,,CLR,0.06,0.00,VWS V15.00,2013-12-04 09:50:00,
2013-12-04 04:51:00,55.9,54.8,29.96,SSW,200,1.0,0.0,96,0.02,,,0.06,0.00,VWS V14.01,2013-12-04 09:51:00,
2013-12-04 04:55:00,56.0,55.2,29.98,SW,217,5.0,0.0,97,0.00,,CLR,0.06,0.00,VWS V15.00,2013-12-04 09:55:00,
2013-12-04 04:56:00,55.9,54.8,29.96,SSE,149,5.0,0.0,96,0.02,,,0.06,0.00,VWS V14.01,2013-12-04 09:56:00,
2013-12-04 05:01:00,55.9,54.8,29.96,SSW,193,2.0,0.0,96,0.02,,,0.06,0.00,VWS V14.01,2013-12-04 10:01:00,
2013-12-04 05:05:00,56.1,55.3,29.98,South,190,1.0,0.0,97,0.00,,CLR,0.06,0.00,VWS V15.00,2013-12-04 10:05:00,
2013-12-04 05:07:00,55.9,54.8,29.96,South,182,2.0,0.0,96,0.02,,,0.06,0.00,VWS V14.01,2013-12-04 10:07:00,
2013-12-04 05:12:00,55.9,54.8,29.96,South,181,1.0,0.0,96,0.01,,,0.06,0.00,VWS V14.01,2013-12-04 10:12:00,
2013-12-04 05:15:00,56.2,55.4,29.99,SSW,205,5.0,0.0,97,0.00,,CLR,0.06,0.00,VWS V15.00,2013-12-04 10:15:00,
2013-12-04 05:17:00,55.9,54.8,29.96,South,177,1.0,0.0,96,0.01,,,0.06,0.00,VWS V14.01,2013-12-04 10:17:00,
2013-12-04 05:22:00,55.9,54.8,29.96,South,173,1.0,0.0,96,0.01,,,0.06,0.00,VWS V14.01,2013-12-04 10:22:00,
2013-12-04 05:25:00,56.3,55.5,29.99,SSW,196,3.0,0.0,97,0.00,,CLR,0.06,0.00,VWS V15.00,2013-12-04 10:25:00,
2013-12-04 05:27:00,55.9,54.8,29.96,South,186,2.0,0.0,96,0.01,,,0.06,0.00,VWS V14.01,2013-12-04 10:27:00,
2013-12-04 05:30:00,56.3,55.5,29.99,SSW,213,5.0,0.0,97,0.00,,CLR,0.06,0.00,VWS V15.00,2013-12-04 10:30:00,
2013-12-04 05:32:00,55.9,54.8,29.96,SE,145,1.0,0.0,96,0.01,,,0.06,0.00,VWS V14.01,2013-12-04 10:32:00,
2013-12-04 05:35:00,56.4,55.6,30.00,SW,225,2.0,0.0,97,0.00,,CLR,0.06,0.00,VWS V15.00,2013-12-04 10:35:00,
2013-12-04 05:37:00,55.9,54.8,29.96,SSE,157,1.0,0.0,96,0.00,,,0.06,0.00,VWS V14.01,2013-12-04 10:37:00,
2013-12-04 05:40:00,56.4,55.6,30.00,SW,231,4.0,0.0,97,0.00,,CLR,0.06,0.00,VWS V15.00,2013-12-04 10:40:00,
2013-12-04 05:42:00,55.9,55.1,29.97,SSW,207,3.0,0.0,97,0.00,,,0.06,0.00,VWS V14.01,2013-12-04 10:42:00,
2013-12-04 05:45:00,56.4,55.6,30.00,SSW,211,4.0,0.0,97,0.00,,CLR,0.06,0.00,VWS V15.00,2013-12-04 10:45:00,
2013-12-04 05:48:00,56.0,55.2,29.97,SSE,164,1.0,0.0,97,0.00,,,0.06,0.00,VWS V14.01,2013-12-04 10:48:00,
2013-12-04 05:50:00,56.5,55.7,30.00,SSW,206,3.0,0.0,97,0.00,,CLR,0.06,0.00,VWS V15.00,2013-12-04 10:50:00,
2013-12-04 05:53:00,56.0,55.2,29.98,South,191,3.0,0.0,97,0.00,,,0.06,0.00,VWS V14.01,2013-12-04 10:53:00,
2013-12-04 05:55:00,56.5,55.7,30.00,SW,226,3.0,0.0,97,0.00,,CLR,0.06,0.00,VWS V15.00,2013-12-04 10:55:00,
2013-12-04 05:58:00,56.0,55.2,29.98,SW,217,2.0,0.0,97,0.00,,,0.06,0.00,VWS V14.01,2013-12-04 10:58:00,
2013-12-04 06:00:00,56.5,55.7,30.00,SSW,211,2.0,0.0,97,0.00,,CLR,0.06,0.00,VWS V15.00,2013-12-04 11:00:00,
2013-12-04 06:03:00,56.1,55.3,29.98,South,182,2.0,0.0,97,0.00,,,0.06,0.00,VWS V14.01,2013-12-04 11:03:00,
2013-12-04 06:05:00,56.5,55.7,30.00,South,180,2.0,0.0,97,0.00,,CLR,0.06,0.00,VWS V15.00,2013-12-04 11:05:00,
2013-12-04 06:08:00,56.1,55.3,29.98,SSW,198,2.0,0.0,97,0.00,,,0.06,0.00,VWS V14.01,2013-12-04 11:08:00,
2013-12-04 06:10:00,56.6,55.8,30.00,South,185,0.0,0.0,97,0.00,,CLR,0.06,0.00,VWS V15.00,2013-12-04 11:10:00,
2013-12-04 06:13:00,56.2,55.4,29.99,SW,219,3.0,0.0,97,0.00,,,0.06,0.00,VWS V14.01,2013-12-04 11:13:00,
2013-12-04 06:15:00,56.6,55.8,30.01,SSW,210,1.0,0.0,97,0.00,,CLR,0.06,0.00,VWS V15.00,2013-12-04 11:15:00,
2013-12-04 06:18:00,56.2,55.4,29.99,South,184,2.0,0.0,97,0.00,,,0.06,0.00,VWS V14.01,2013-12-04 11:18:00,
2013-12-04 06:20:00,56.6,55.8,30.01,SSW,205,2.0,0.0,97,0.00,,CLR,0.06,0.00,VWS V15.00,2013-12-04 11:20:00,
2013-12-04 06:23:00,56.3,55.5,29.99,SW,220,5.0,0.0,97,0.00,,,0.06,0.00,VWS V14.01,2013-12-04 11:23:00,
2013-12-04 06:25:00,56.6,55.8,30.01,SSW,196,3.0,0.0,97,0.00,,CLR,0.06,0.00,VWS V15.00,2013-12-04 11:25:00,
2013-12-04 06:28:00,56.3,55.5,29.99,SW,221,4.0,0.0,97,0.00,,,0.06,0.00,VWS V14.01,2013-12-04 11:28:00,
2013-12-04 06:33:00,56.3,55.5,29.99,SSW,200,4.0,0.0,97,0.00,,,0.06,0.00,VWS V14.01,2013-12-04 11:33:00,
2013-12-04 06:35:00,56.6,55.8,30.02,SSW,211,2.0,0.0,97,0.00,,CLR,0.06,0.00,VWS V15.00,2013-12-04 11:35:00,
2013-12-04 06:38:00,56.4,55.6,30.00,SSW,209,3.0,0.0,97,0.00,,,0.06,0.00,VWS V14.01,2013-12-04 11:38:00,
2013-12-04 06:40:00,56.6,55.8,30.02,SSW,194,2.0,0.0,97,0.00,,CLR,0.06,5.00,VWS V15.00,2013-12-04 11:40:00,
2013-12-04 06:43:00,56.4,55.6,30.00,South,180,4.0,0.0,97,0.00,,,0.06,0.00,VWS V14.01,2013-12-04 11:43:00,
2013-12-04 06:48:00,56.5,55.7,30.00,SSW,210,4.0,0.0,97,0.00,,,0.06,0.00,VWS V14.01,2013-12-04 11:48:00,
2013-12-04 06:50:00,56.7,55.9,30.02,SSW,198,1.0,0.0,97,0.00,,CLR,0.06,11.00,VWS V15.00,2013-12-04 11:50:00,
2013-12-04 06:53:00,56.5,55.7,30.00,SSW,202,2.0,0.0,97,0.00,,,0.06,0.00,VWS V14.01,2013-12-04 11:53:00,
2013-12-04 06:55:00,56.7,55.9,30.02,South,190,1.0,0.0,97,0.00,,CLR,0.06,12.00,VWS V15.00,2013-12-04 11:55:00,
2013-12-04 06:58:00,56.5,55.7,30.00,SSW,211,2.0,0.0,97,0.00,,,0.06,0.00,VWS V14.01,2013-12-04 11:58:00,
2013-12-04 07:00:00,56.7,55.9,30.03,South,178,2.0,0.0,97,0.00,,CLR,0.06,16.00,VWS V15.00,2013-12-04 12:00:00,
2013-12-04 07:03:00,56.5,55.7,30.00,South,190,2.0,0.0,97,0.00,,,0.06,0.00,VWS V14.01,2013-12-04 12:03:00,
2013-12-04 07:05:00,56.7,55.9,30.03,South,182,1.0,0.0,97,0.00,,CLR,0.06,18.00,VWS V15.00,2013-12-04 12:05:00,
2013-12-04 07:08:00,56.6,55.8,30.00,South,186,2.0,0.0,97,0.00,,,0.06,0.00,VWS V14.01,2013-12-04 12:08:00,
2013-12-04 07:10:00,56.8,56.0,30.02,SE,136,2.0,0.0,97,0.00,,CLR,0.06,26.00,VWS V15.00,2013-12-04 12:10:00,
2013-12-04 07:13:00,56.6,55.8,30.01,SSW,202,1.0,0.0,97,0.00,,,0.06,0.00,VWS V14.01,2013-12-04 12:13:00,
2013-12-04 07:15:00,56.8,56.0,30.02,SE,135,1.0,0.0,97,0.00,,CLR,0.06,21.00,VWS V15.00,2013-12-04 12:15:00,
2013-12-04 07:19:00,56.6,55.8,30.01,SSW,202,1.0,0.0,97,0.00,,,0.06,0.00,VWS V14.01,2013-12-04 12:19:00,
2013-12-04 07:20:00,56.8,56.0,30.02,ESE,122,3.0,0.0,97,0.00,,CLR,0.06,26.00,VWS V15.00,2013-12-04 12:20:00,
2013-12-04 07:24:00,56.6,55.8,30.01,SSW,207,2.0,0.0,97,0.00,,,0.06,0.00,VWS V14.01,2013-12-04 12:24:00,
2013-12-04 07:25:00,56.9,56.1,30.03,ESE,112,1.0,0.0,97,0.00,,CLR,0.06,33.00,VWS V15.00,2013-12-04 12:25:00,
2013-12-04 07:29:00,56.6,55.8,30.02,SW,228,1.0,0.0,97,0.00,,,0.06,0.00,VWS V14.01,2013-12-04 12:29:00,
2013-12-04 07:30:00,56.9,56.1,30.02,SSE,149,1.0,0.0,97,0.00,,CLR,0.06,21.00,VWS V15.00,2013-12-04 12:30:00,
2013-12-04 07:34:00,56.6,55.8,30.02,SSW,207,2.0,0.0,97,0.00,,,0.06,0.00,VWS V14.01,2013-12-04 12:34:00,
2013-12-04 07:35:00,56.9,56.1,30.02,SE,137,2.0,0.0,97,0.00,,CLR,0.06,23.00,VWS V15.00,2013-12-04 12:35:00,
2013-12-04 07:39:00,56.6,55.8,30.02,SSW,198,2.0,0.0,97,0.00,,,0.06,5.00,VWS V14.01,2013-12-04 12:39:00,
2013-12-04 07:40:00,56.9,56.1,30.02,SE,130,2.0,0.0,97,0.00,,CLR,0.06,32.00,VWS V15.00,2013-12-04 12:40:00,
2013-12-04 07:44:00,56.6,55.8,30.02,SSW,202,1.0,0.0,97,0.00,,,0.06,7.00,VWS V14.01,2013-12-04 12:44:00,
2013-12-04 07:45:00,57.0,56.2,30.03,SE,142,2.0,0.0,97,0.00,,CLR,0.06,37.00,VWS V15.00,2013-12-04 12:45:00,
2013-12-04 07:49:00,56.6,55.8,30.02,SSW,198,2.0,0.0,97,0.00,,,0.06,9.00,VWS V14.01,2013-12-04 12:49:00,
2013-12-04 07:50:00,57.0,56.2,30.03,SE,136,1.0,0.0,97,0.00,,CLR,0.06,46.00,VWS V15.00,2013-12-04 12:50:00,
2013-12-04 07:54:00,56.7,55.9,30.02,South,180,1.0,0.0,97,0.00,,,0.06,12.00,VWS V14.01,2013-12-04 12:54:00,
2013-12-04 07:55:00,57.1,56.3,30.03,South,173,0.0,0.0,97,0.00,,CLR,0.06,60.00,VWS V15.00,2013-12-04 12:55:00,
2013-12-04 07:59:00,56.7,55.9,30.03,South,177,2.0,0.0,97,0.00,,,0.06,16.00,VWS V14.01,2013-12-04 12:59:00,
2013-12-04 08:00:00,57.2,56.4,30.04,SE,146,2.0,0.0,97,0.00,,CLR,0.06,54.00,VWS V15.00,2013-12-04 13:00:00,
2013-12-04 08:04:00,56.7,55.9,30.03,South,182,1.0,0.0,97,0.00,,,0.06,18.00,VWS V14.01,2013-12-04 13:04:00,
2013-12-04 08:05:00,57.2,56.4,30.04,SE,142,2.0,0.0,97,0.00,,CLR,0.06,60.00,VWS V15.00,2013-12-04 13:05:00,
2013-12-04 08:09:00,56.8,56.0,30.02,SE,136,2.0,0.0,97,0.00,,,0.06,26.00,VWS V14.01,2013-12-04 13:09:00,
2013-12-04 08:10:00,57.2,56.4,30.04,SE,134,1.0,0.0,97,0.00,,CLR,0.06,88.00,VWS V15.00,2013-12-04 13:10:00,
2013-12-04 08:14:00,56.8,56.0,30.02,SE,135,2.0,0.0,97,0.00,,,0.06,21.00,VWS V14.01,2013-12-04 13:14:00,
2013-12-04 08:15:00,57.4,56.6,30.04,ESE,123,2.0,0.0,97,0.00,,CLR,0.06,76.00,VWS V15.00,2013-12-04 13:15:00,
2013-12-04 08:19:00,56.9,56.1,30.02,SE,124,3.0,0.0,97,0.00,,,0.06,26.00,VWS V14.01,2013-12-04 13:19:00,
2013-12-04 08:20:00,57.5,56.7,30.04,SSW,196,1.0,0.0,97,0.00,,CLR,0.06,46.00,VWS V15.00,2013-12-04 13:20:00,
2013-12-04 08:24:00,56.9,56.1,30.03,ESE,112,1.0,0.0,97,0.00,,,0.06,33.00,VWS V14.01,2013-12-04 13:24:00,
2013-12-04 08:25:00,57.5,56.7,30.04,SSW,202,3.0,0.0,97,0.00,,CLR,0.06,72.00,VWS V15.00,2013-12-04 13:25:00,
2013-12-04 08:29:00,56.9,56.1,30.02,SSE,149,1.0,0.0,97,0.00,,,0.06,23.00,VWS V14.01,2013-12-04 13:29:00,
2013-12-04 08:30:00,57.5,56.7,30.04,SSW,199,1.0,0.0,97,0.00,,CLR,0.06,90.00,VWS V15.00,2013-12-04 13:30:00,
2013-12-04 08:35:00,56.9,56.1,30.02,SE,137,2.0,0.0,97,0.00,,,0.06,23.00,VWS V14.01,2013-12-04 13:35:00,
2013-12-04 08:40:00,56.9,56.1,30.02,SE,130,2.0,0.0,97,0.00,,,0.06,32.00,VWS V14.01,2013-12-04 13:40:00,
2013-12-04 08:45:00,57.0,56.2,30.03,SE,142,2.0,0.0,97,0.00,,,0.06,37.00,VWS V14.01,2013-12-04 13:45:00,
2013-12-04 08:50:00,57.1,56.3,30.03,SE,136,1.0,0.0,97,0.00,,,0.06,46.00,VWS V14.01,2013-12-04 13:50:00,
2013-12-04 08:55:00,57.2,56.4,30.03,South,173,1.0,0.0,97,0.00,,,0.06,60.00,VWS V14.01,2013-12-04 13:55:00,
2013-12-04 09:00:00,57.2,56.4,30.04,SE,146,1.0,0.0,97,0.00,,,0.06,54.00,VWS V14.01,2013-12-04 14:00:00,
2013-12-04 09:05:00,57.2,56.4,30.04,SE,142,1.0,0.0,97,0.00,,,0.06,67.00,VWS V14.01,2013-12-04 14:05:00,
2013-12-04 09:10:00,57.2,56.4,30.04,ESE,116,1.0,0.0,97,0.00,,,0.06,91.00,VWS V14.01,2013-12-04 14:10:00,
2013-12-04 09:15:00,57.4,56.6,30.04,ESE,121,1.0,0.0,97,0.00,,,0.06,77.00,VWS V14.01,2013-12-04 14:15:00,
2013-12-04 09:20:00,57.5,56.7,30.04,South,187,2.0,0.0,97,0.00,,,0.06,47.00,VWS V14.01,2013-12-04 14:20:00,
2013-12-04 09:25:00,57.5,56.7,30.04,SW,219,2.0,0.0,97,0.00,,,0.06,69.00,VWS V14.01,2013-12-04 14:25:00,
2013-12-04 09:30:00,57.5,56.7,30.04,SSW,199,1.0,0.0,97,0.00,,,0.06,88.00,VWS V14.01,2013-12-04 14:30:00,
2013-12-04 09:35:00,57.6,56.8,30.04,SSE,151,0.0,0.0,97,0.00,,,0.06,67.00,VWS V14.01,2013-12-04 14:35:00,
2013-12-04 09:40:00,58.8,58.0,30.07,SW,218,3.0,0.0,97,0.00,,CLR,0.06,109.00,VWS V15.00,2013-12-04 14:40:00,
2013-12-04 09:41:00,57.7,56.9,30.05,SSE,164,2.0,0.0,97,0.00,,,0.06,70.00,VWS V14.01,2013-12-04 14:41:00,
2013-12-04 09:45:00,59.0,58.2,30.06,WSW,248,1.0,0.0,97,0.00,,CLR,0.06,132.00,VWS V15.00,2013-12-04 14:45:00,
2013-12-04 09:46:00,57.7,56.9,30.05,SW,236,3.0,0.0,97,0.00,,,0.06,81.00,VWS V14.01,2013-12-04 14:46:00,
2013-12-04 09:50:00,59.2,58.3,30.06,SW,214,3.0,0.0,97,0.00,,CLR,0.06,134.00,VWS V15.00,2013-12-04 14:50:00,
2013-12-04 09:51:00,57.8,57.0,30.05,SW,225,2.0,0.0,97,0.00,,,0.06,105.00,VWS V14.01,2013-12-04 14:51:00,
2013-12-04 09:55:00,59.3,58.2,30.07,SSW,213,2.0,0.0,96,0.00,,CLR,0.06,195.00,VWS V15.00,2013-12-04 14:55:00,
2013-12-04 09:56:00,57.9,57.1,30.05,South,178,1.0,0.0,97,0.00,,,0.06,88.00,VWS V14.01,2013-12-04 14:56:00,
2013-12-04 10:00:00,59.6,58.5,30.06,South,190,1.0,0.0,96,0.00,,CLR,0.06,339.00,VWS V15.00,2013-12-04 15:00:00,
2013-12-04 10:01:00,58.1,57.3,30.05,SSE,161,4.0,0.0,97,0.00,,,0.06,113.00,VWS V14.01,2013-12-04 15:01:00,
2013-12-04 10:05:00,59.9,58.8,30.06,WSW,257,1.0,0.0,96,0.00,,CLR,0.06,171.00,VWS V15.00,2013-12-04 15:05:00,
2013-12-04 10:06:00,58.2,57.4,30.05,SSE,163,1.0,0.0,97,0.00,,,0.06,128.00,VWS V14.01,2013-12-04 15:06:00,
2013-12-04 10:10:00,60.0,58.3,30.06,SW,232,2.0,0.0,94,0.00,,CLR,0.06,207.00,VWS V15.00,2013-12-04 15:10:00,
2013-12-04 10:11:00,58.3,57.5,30.06,South,186,1.0,0.0,97,0.00,,,0.06,111.00,VWS V14.01,2013-12-04 15:11:00,
2013-12-04 10:15:00,60.4,58.7,30.07,WSW,253,3.0,0.0,94,0.00,,CLR,0.06,172.00,VWS V15.00,2013-12-04 15:15:00,
2013-12-04 10:16:00,58.4,57.6,30.06,South,173,1.0,0.0,97,0.00,,,0.06,86.00,VWS V14.01,2013-12-04 15:16:00,
2013-12-04 10:20:00,60.4,58.7,30.06,West,265,4.0,0.0,94,0.00,,CLR,0.06,163.00,VWS V15.00,2013-12-04 15:20:00,
2013-12-04 10:21:00,58.5,57.7,30.06,SW,219,3.0,0.0,97,0.00,,,0.06,128.00,VWS V14.01,2013-12-04 15:21:00,
2013-12-04 10:25:00,60.5,58.8,30.06,SW,224,4.0,0.0,94,0.00,,CLR,0.06,178.00,VWS V15.00,2013-12-04 15:25:00,
2013-12-04 10:26:00,58.6,57.8,30.06,WSW,244,2.0,0.0,97,0.00,,,0.06,134.00,VWS V14.01,2013-12-04 15:26:00,
2013-12-04 10:30:00,60.6,58.9,30.06,WSW,238,1.0,0.0,94,0.00,,CLR,0.06,88.00,VWS V15.00,2013-12-04 15:30:00,
2013-12-04 10:31:00,58.7,57.8,30.06,WSW,238,2.0,0.0,97,0.00,,,0.06,100.00,VWS V14.01,2013-12-04 15:31:00,
2013-12-04 10:35:00,60.6,58.6,30.06,SW,227,5.0,0.0,93,0.00,,CLR,0.06,90.00,VWS V15.00,2013-12-04 15:35:00,
2013-12-04 10:36:00,58.9,58.0,30.07,SW,229,2.0,0.0,97,0.00,,,0.06,107.00,VWS V14.01,2013-12-04 15:36:00,
2013-12-04 10:40:00,60.4,58.4,30.06,WSW,258,2.0,0.0,93,0.00,,CLR,0.06,134.00,VWS V15.00,2013-12-04 15:40:00,
2013-12-04 10:41:00,58.8,58.0,30.07,SSW,207,3.0,0.0,97,0.00,,,0.06,114.00,VWS V14.01,2013-12-04 15:41:00,
2013-12-04 10:45:00,60.5,58.5,30.06,SSW,209,3.0,0.0,93,0.00,,CLR,0.06,121.00,VWS V15.00,2013-12-04 15:45:00,
2013-12-04 10:46:00,59.1,58.2,30.06,SW,229,3.0,0.0,97,0.00,,,0.06,128.00,VWS V14.01,2013-12-04 15:46:00,
2013-12-04 10:50:00,60.4,58.4,30.05,WSW,254,5.0,0.0,93,0.00,,CLR,0.06,63.00,VWS V15.00,2013-12-04 15:50:00,
2013-12-04 10:51:00,59.2,58.3,30.06,SW,224,1.0,0.0,97,0.00,,,0.06,162.00,VWS V14.01,2013-12-04 15:51:00,
2013-12-04 10:55:00,60.2,58.2,30.05,West,264,3.0,0.0,93,0.00,,CLR,0.06,121.00,VWS V15.00,2013-12-04 15:55:00,
2013-12-04 10:56:00,59.5,58.4,30.07,South,186,2.0,0.0,96,0.00,,,0.06,267.00,VWS V14.01,2013-12-04 15:56:00,
2013-12-04 11:00:00,60.2,58.2,30.05,WSW,255,2.0,0.0,93,0.00,,CLR,0.06,109.00,VWS V15.00,2013-12-04 16:00:00,
2013-12-04 11:02:00,59.8,58.7,30.06,SSW,197,2.0,0.0,96,0.00,,,0.06,258.00,VWS V14.01,2013-12-04 16:02:00,
2013-12-04 11:05:00,60.2,58.2,30.05,WSW,246,2.0,0.0,93,0.00,,CLR,0.06,102.00,VWS V15.00,2013-12-04 16:05:00,
2013-12-04 11:07:00,60.0,58.6,30.06,SW,232,2.0,0.0,95,0.00,,,0.06,199.00,VWS V14.01,2013-12-04 16:07:00,
2013-12-04 11:10:00,60.1,58.1,30.04,SW,215,4.0,0.0,93,0.00,,CLR,0.06,84.00,VWS V15.00,2013-12-04 16:10:00,
2013-12-04 11:12:00,60.2,58.8,30.06,WSW,250,4.0,0.0,95,0.00,,,0.06,218.00,VWS V14.01,2013-12-04 16:12:00,
2013-12-04 11:15:00,60.1,58.4,30.04,SW,223,4.0,0.0,94,0.00,,CLR,0.06,74.00,VWS V15.00,2013-12-04 16:15:00,
2013-12-04 11:17:00,60.4,58.7,30.06,SSW,213,2.0,0.0,94,0.00,,,0.06,162.00,VWS V14.01,2013-12-04 16:17:00,
2013-12-04 11:20:00,60.0,58.3,30.04,SSW,213,3.0,0.0,94,0.00,,CLR,0.06,72.00,VWS V15.00,2013-12-04 16:20:00,
2013-12-04 11:22:00,60.5,58.8,30.06,WSW,238,2.0,0.0,94,0.00,,,0.06,199.00,VWS V14.01,2013-12-04 16:22:00,
2013-12-04 11:25:00,59.8,58.1,30.03,SW,229,2.0,0.0,94,0.00,,CLR,0.06,118.00,VWS V15.00,2013-12-04 16:25:00,
2013-12-04 11:27:00,60.6,58.9,30.06,WSW,250,4.0,0.0,94,0.00,,,0.06,114.00,VWS V14.01,2013-12-04 16:27:00,
2013-12-04 11:30:00,59.9,58.2,30.03,West,259,2.0,0.0,94,0.00,,CLR,0.06,158.00,VWS V15.00,2013-12-04 16:30:00,
2013-12-04 11:32:00,60.7,59.0,30.06,SW,225,2.0,0.0,94,0.00,,,0.06,90.00,VWS V14.01,2013-12-04 16:32:00,
2013-12-04 11:35:00,60.1,58.4,30.03,West,281,7.0,0.0,94,0.00,,CLR,0.06,139.00,VWS V15.00,2013-12-04 16:35:00,
2013-12-04 11:37:00,60.5,58.5,30.06,WSW,241,4.0,0.0,93,0.00,,,0.06,97.00,VWS V14.01,2013-12-04 16:37:00,
2013-12-04 11:40:00,60.2,58.2,30.03,West,259,2.0,0.0,93,0.00,,CLR,0.06,193.00,VWS V15.00,2013-12-04 16:40:00,
2013-12-04 11:42:00,60.4,58.4,30.06,SW,226,3.0,0.0,93,0.00,,,0.06,114.00,VWS V14.01,2013-12-04 16:42:00,
2013-12-04 11:45:00,60.4,58.4,30.03,SW,222,2.0,0.0,93,0.00,,CLR,0.06,239.00,VWS V15.00,2013-12-04 16:45:00,
2013-12-04 11:47:00,60.4,58.4,30.05,WSW,254,3.0,0.0,93,0.00,,,0.06,70.00,VWS V14.01,2013-12-04 16:47:00,
2013-12-04 11:50:00,60.9,58.9,30.03,South,186,2.0,0.0,93,0.00,,CLR,0.06,234.00,VWS V15.00,2013-12-04 16:50:00,
2013-12-04 11:52:00,60.3,58.3,30.05,West,281,8.0,0.0,93,0.00,,,0.06,98.00,VWS V14.01,2013-12-04 16:52:00,
2013-12-04 11:55:00,61.1,59.1,30.03,West,275,3.0,0.0,93,0.00,,CLR,0.06,359.00,VWS V15.00,2013-12-04 16:55:00,
2013-12-04 11:57:00,60.2,58.5,30.05,West,265,3.0,0.0,94,0.00,,,0.06,111.00,VWS V14.01,2013-12-04 16:57:00,
2013-12-04 12:00:00,61.6,59.0,30.03,SSW,211,1.0,0.0,91,0.00,,CLR,0.06,302.00,VWS V15.00,2013-12-04 17:00:00,
2013-12-04 12:02:00,60.2,58.5,30.05,West,262,6.0,0.0,94,0.00,,,0.06,97.00,VWS V14.01,2013-12-04 17:02:00,
2013-12-04 12:05:00,61.9,58.6,30.02,SSW,207,3.0,0.0,89,0.00,,CLR,0.06,209.00,VWS V15.00,2013-12-04 17:05:00,
2013-12-04 12:07:00,60.2,58.5,30.05,West,268,3.0,0.0,94,0.00,,,0.06,91.00,VWS V14.01,2013-12-04 17:07:00,
2013-12-04 12:10:00,62.0,58.4,30.02,SW,223,2.0,0.0,88,0.00,,CLR,0.06,218.00,VWS V15.00,2013-12-04 17:10:00,
2013-12-04 12:12:00,60.1,58.1,30.04,WSW,251,3.0,0.0,93,0.00,,,0.06,74.00,VWS V14.01,2013-12-04 17:12:00,
2013-12-04 12:15:00,62.1,58.8,30.01,SW,223,6.0,0.0,89,0.00,,CLR,0.06,258.00,VWS V15.00,2013-12-04 17:15:00,
2013-12-04 12:17:00,60.0,58.3,30.04,WSW,243,5.0,0.0,94,0.00,,,0.06,72.00,VWS V14.01,2013-12-04 17:17:00,
2013-12-04 12:20:00,62.1,58.5,30.02,South,189,3.0,0.0,88,0.00,,CLR,0.06,176.00,VWS V15.00,2013-12-04 17:20:00,
2013-12-04 12:22:00,59.8,58.1,30.03,WSW,246,4.0,0.0,94,0.00,,,0.06,81.00,VWS V14.01,2013-12-04 17:22:00,
2013-12-04 12:25:00,62.1,58.2,30.01,SSW,206,4.0,0.0,87,0.00,,CLR,0.06,183.00,VWS V15.00,2013-12-04 17:25:00,
2013-12-04 12:28:00,59.9,58.2,30.03,WSW,252,3.0,0.0,94,0.00,,,0.06,158.00,VWS V14.01,2013-12-04 17:28:00,
2013-12-04 12:30:00,62.4,58.8,30.01,SSW,211,3.0,0.0,88,0.00,,CLR,0.06,200.00,VWS V15.00,2013-12-04 17:30:00,
2013-12-04 12:33:00,60.0,58.3,30.03,WSW,243,4.0,0.0,94,0.00,,,0.06,135.00,VWS V14.01,2013-12-04 17:33:00,
2013-12-04 12:35:00,62.6,58.7,30.02,WSW,240,3.0,0.0,87,0.00,,CLR,0.06,148.00,VWS V15.00,2013-12-04 17:35:00,
2013-12-04 12:38:00,60.2,58.5,30.03,SSW,213,3.0,0.0,94,0.00,,OVC011,0.06,174.00,VWS V14.01,2013-12-04 17:38:00,
2013-12-04 12:40:00,62.4,58.5,30.01,SW,229,1.0,0.0,87,0.00,,CLR,0.06,132.00,VWS V15.00,2013-12-04 17:40:00,
2013-12-04 12:43:00,60.3,58.3,30.03,SW,234,3.0,0.0,93,0.00,,OVC011,0.06,218.00,VWS V14.01,2013-12-04 17:43:00,
2013-12-04 12:45:00,62.3,58.7,30.01,SSW,210,4.0,0.0,88,0.00,,CLR,0.06,134.00,VWS V15.00,2013-12-04 17:45:00,
2013-12-04 12:48:00,60.7,59.0,30.03,South,191,3.0,0.0,94,0.00,,OVC011,0.06,283.00,VWS V14.01,2013-12-04 17:48:00,
2013-12-04 12:50:00,62.2,58.6,30.01,SSW,201,2.0,0.0,88,0.00,,CLR,0.06,171.00,VWS V15.00,2013-12-04 17:50:00,
2013-12-04 12:53:00,61.0,59.0,30.03,SSW,211,3.0,0.0,93,0.00,,OVC011,0.06,267.00,VWS V14.01,2013-12-04 17:53:00,
2013-12-04 12:55:00,62.2,58.3,30.01,SW,225,5.0,0.0,87,0.00,,CLR,0.06,90.00,VWS V15.00,2013-12-04 17:55:00,
2013-12-04 12:58:00,61.4,58.5,30.03,WSW,247,2.0,0.0,90,0.00,,OVC011,0.06,295.00,VWS V14.01,2013-12-04 17:58:00,
2013-12-04 13:00:00,62.1,58.5,30.01,West,268,3.0,0.0,88,0.00,,CLR,0.06,102.00,VWS V15.00,2013-12-04 18:00:00,
2013-12-04 13:03:00,61.8,59.2,30.02,SW,222,4.0,0.0,91,0.00,,OVC011,0.06,199.00,VWS V14.01,2013-12-04 18:03:00,
2013-12-04 13:05:00,62.1,58.5,30.01,West,267,2.0,0.0,88,0.00,,CLR,0.06,76.00,VWS V15.00,2013-12-04 18:05:00,
2013-12-04 13:08:00,62.0,58.7,30.02,SW,225,4.0,0.0,89,0.00,,OVC011,0.06,234.00,VWS V14.01,2013-12-04 18:08:00,
2013-12-04 13:10:00,62.1,58.5,30.01,SW,234,3.0,0.0,88,0.00,,CLR,0.06,63.00,VWS V15.00,2013-12-04 18:10:00,
2013-12-04 13:13:00,62.0,58.7,30.01,SW,220,5.0,0.0,89,0.00,,OVC011,0.06,234.00,VWS V14.01,2013-12-04 18:13:00,
2013-12-04 13:15:00,62.0,58.4,30.01,SSW,207,2.0,0.0,88,0.00,,CLR,0.06,114.00,VWS V15.00,2013-12-04 18:15:00,
2013-12-04 13:18:00,62.1,58.5,30.02,SW,214,2.0,0.0,88,0.00,,OVC011,0.06,278.00,VWS V14.01,2013-12-04 18:18:00,
2013-12-04 13:20:00,62.0,58.4,30.01,SW,215,2.0,0.0,88,0.00,,CLR,0.06,148.00,VWS V15.00,2013-12-04 18:20:00,
2013-12-04 13:23:00,62.1,58.5,30.02,South,186,3.0,0.0,88,0.00,,OVC011,0.06,151.00,VWS V14.01,2013-12-04 18:23:00,
2013-12-04 13:25:00,62.2,58.6,30.00,SW,218,2.0,0.0,88,0.00,,CLR,0.06,199.00,VWS V15.00,2013-12-04 18:25:00,
2013-12-04 13:28:00,62.3,58.7,30.01,South,184,3.0,0.0,88,0.00,,OVC011,0.06,260.00,VWS V14.01,2013-12-04 18:28:00,
2013-12-04 13:30:00,62.5,58.9,30.00,WSW,250,1.0,0.0,88,0.00,,CLR,0.06,202.00,VWS V15.00,2013-12-04 18:30:00,
2013-12-04 13:33:00,62.6,59.0,30.01,WSW,242,3.0,0.0,88,0.00,,OVC011,0.06,141.00,VWS V14.01,2013-12-04 18:33:00,
2013-12-04 13:35:00,62.7,59.1,30.00,WSW,254,1.0,0.0,88,0.00,,CLR,0.06,211.00,VWS V15.00,2013-12-04 18:35:00,
2013-12-04 13:38:00,62.5,58.6,30.01,WSW,248,3.0,0.0,87,0.00,,OVC014,0.06,128.00,VWS V14.01,2013-12-04 18:38:00,
2013-12-04 13:40:00,63.0,59.1,30.00,WSW,254,1.0,0.0,87,0.00,,CLR,0.06,190.00,VWS V15.00,2013-12-04 18:40:00,
2013-12-04 13:43:00,62.3,58.4,30.01,SW,215,3.0,0.0,87,0.00,,OVC014,0.06,128.00,VWS V14.01,2013-12-04 18:43:00,
2013-12-04 13:45:00,63.1,58.8,30.00,SSW,213,3.0,0.0,86,0.00,,CLR,0.06,251.00,VWS V15.00,2013-12-04 18:45:00,
2013-12-04 13:48:00,62.2,58.3,30.01,SSW,208,3.0,0.0,87,0.00,,OVC014,0.06,149.00,VWS V14.01,2013-12-04 18:48:00,
2013-12-04 13:50:00,63.3,59.0,30.00,South,174,1.0,0.0,86,0.00,,CLR,0.06,229.00,VWS V15.00,2013-12-04 18:50:00,
2013-12-04 13:53:00,62.2,58.3,30.01,SW,229,2.0,0.0,87,0.00,,OVC014,0.06,104.00,VWS V14.01,2013-12-04 18:53:00,
2013-12-04 13:55:00,63.4,59.2,30.00,South,180,3.0,0.0,86,0.00,,CLR,0.06,202.00,VWS V15.00,2013-12-04 18:55:00,
2013-12-04 13:58:00,62.2,58.6,30.01,West,265,2.0,0.0,88,0.00,,OVC014,0.06,97.00,VWS V14.01,2013-12-04 18:58:00,
2013-12-04 14:00:00,63.6,59.3,30.00,South,174,1.0,0.0,86,0.00,,CLR,0.06,258.00,VWS V15.00,2013-12-04 19:00:00,
2013-12-04 14:03:00,62.1,58.5,30.01,West,273,2.0,0.0,88,0.00,,OVC014,0.06,76.00,VWS V14.01,2013-12-04 19:03:00,
2013-12-04 14:05:00,64.3,59.4,30.00,SSE,157,3.0,0.0,84,0.00,,CLR,0.06,274.00,VWS V15.00,2013-12-04 19:05:00,
2013-12-04 14:08:00,62.1,58.5,30.01,West,259,2.0,0.0,88,0.00,,OVC014,0.06,65.00,VWS V14.01,2013-12-04 19:08:00,
2013-12-04 14:10:00,64.3,59.0,30.00,SSW,202,3.0,0.0,83,0.00,,CLR,0.06,160.00,VWS V15.00,2013-12-04 19:10:00,
2013-12-04 14:14:00,62.0,58.4,30.01,West,273,2.0,0.0,88,0.00,,OVC014,0.06,104.00,VWS V14.01,2013-12-04 19:14:00,
2013-12-04 14:15:00,64.2,59.3,30.00,WSW,257,3.0,0.0,84,0.00,,CLR,0.06,121.00,VWS V15.00,2013-12-04 19:15:00,
2013-12-04 14:19:00,62.0,58.4,30.01,SW,234,3.0,0.0,88,0.00,,OVC014,0.06,135.00,VWS V14.01,2013-12-04 19:19:00,
2013-12-04 14:20:00,64.2,59.3,30.00,WSW,240,5.0,0.0,84,0.00,,CLR,0.06,128.00,VWS V15.00,2013-12-04 19:20:00,
2013-12-04 14:24:00,62.2,58.9,30.00,SSW,206,1.0,0.0,89,0.00,,OVC014,0.06,209.00,VWS V14.01,2013-12-04 19:24:00,
2013-12-04 14:25:00,64.1,59.2,30.00,South,170,1.0,0.0,84,0.00,,CLR,0.06,105.00,VWS V15.00,2013-12-04 19:25:00,
2013-12-04 14:29:00,62.5,58.9,30.00,WSW,240,2.0,0.0,88,0.00,,OVC014,0.06,195.00,VWS V14.01,2013-12-04 19:29:00,
2013-12-04 14:30:00,64.0,58.7,30.01,SW,225,3.0,0.0,83,0.00,,CLR,0.06,86.00,VWS V15.00,2013-12-04 19:30:00,
2013-12-04 14:34:00,62.7,59.1,30.00,WSW,250,0.0,0.0,88,0.00,,OVC014,0.06,202.00,VWS V14.01,2013-12-04 19:34:00,
2013-12-04 14:35:00,63.9,59.0,30.01,WSW,255,3.0,0.0,84,0.00,,CLR,0.06,74.00,VWS V15.00,2013-12-04 19:35:00,
2013-12-04 14:39:00,63.0,59.1,30.00,WSW,256,1.0,0.0,87,0.00,,OVC018,0.06,202.00,VWS V14.01,2013-12-04 19:39:00,
2013-12-04 14:40:00,63.8,58.9,30.01,SW,220,3.0,0.0,84,0.00,,CLR,0.06,42.00,VWS V15.00,2013-12-04 19:40:00,
2013-12-04 14:44:00,63.1,58.8,30.00,SW,221,3.0,0.0,86,0.00,,OVC018,0.06,236.00,VWS V14.01,2013-12-04 19:44:00,
2013-12-04 14:45:00,63.7,58.8,30.01,SSW,203,2.0,0.0,84,0.00,,CLR,0.06,28.00,VWS V15.00,2013-12-04 19:45:00,
2013-12-04 14:49:00,63.3,59.0,30.00,South,179,1.0,0.0,86,0.00,,OVC018,0.06,229.00,VWS V14.01,2013-12-04 19:49:00,
2013-12-04 14:50:00,63.6,58.7,30.01,SSE,163,2.0,0.0,84,0.00,,CLR,0.06,53.00,VWS V15.00,2013-12-04 19:50:00,
2013-12-04 14:54:00,63.4,59.2,30.00,South,186,2.0,0.0,86,0.00,,OVC018,0.06,202.00,VWS V14.01,2013-12-04 19:54:00,
2013-12-04 14:55:00,63.5,58.9,30.01,SSW,204,1.0,0.0,85,0.00,,CLR,0.06,25.00,VWS V15.00,2013-12-04 19:55:00,
2013-12-04 14:59:00,63.6,59.3,30.00,SSW,196,1.0,0.0,86,0.00,,OVC018,0.06,258.00,VWS V14.01,2013-12-04 19:59:00,
2013-12-04 15:00:00,63.4,58.8,30.02,SW,229,2.0,0.0,85,0.00,,CLR,0.06,21.00,VWS V15.00,2013-12-04 20:00:00,
2013-12-04 15:04:00,64.2,59.3,30.00,SSE,159,2.0,0.0,84,0.00,,OVC018,0.06,274.00,VWS V14.01,2013-12-04 20:04:00,
2013-12-04 15:05:00,63.4,59.2,30.02,West,264,1.0,0.0,86,0.00,,CLR,0.06,18.00,VWS V15.00,2013-12-04 20:05:00,
2013-12-04 15:09:00,64.3,59.0,30.00,South,190,1.0,0.0,83,0.00,,OVC018,0.06,160.00,VWS V14.01,2013-12-04 20:09:00,
2013-12-04 15:10:00,63.3,59.0,30.02,West,265,1.0,0.0,86,0.00,,CLR,0.06,16.00,VWS V15.00,2013-12-04 20:10:00,
2013-12-04 15:14:00,64.2,59.3,30.00,West,266,3.0,0.0,84,0.00,,OVC018,0.06,137.00,VWS V14.01,2013-12-04 20:14:00,
2013-12-04 15:15:00,63.2,59.0,30.02,West,264,0.0,0.0,86,0.00,,CLR,0.06,11.00,VWS V15.00,2013-12-04 20:15:00,
2013-12-04 15:19:00,64.2,59.3,30.00,SW,227,3.0,0.0,84,0.00,,OVC018,0.06,118.00,VWS V14.01,2013-12-04 20:19:00,
2013-12-04 15:20:00,63.1,58.8,30.03,West,264,1.0,0.0,86,0.00,,CLR,0.06,9.00,VWS V15.00,2013-12-04 20:20:00,
2013-12-04 15:24:00,64.1,59.2,30.00,South,170,1.0,0.0,84,0.00,,OVC018,0.06,105.00,VWS V14.01,2013-12-04 20:24:00,
2013-12-04 15:25:00,63.0,59.1,30.03,West,264,0.0,0.0,87,0.00,,CLR,0.06,12.00,VWS V15.00,2013-12-04 20:25:00,
2013-12-04 15:29:00,64.0,58.7,30.01,SW,219,3.0,0.0,83,0.00,,OVC018,0.06,86.00,VWS V14.01,2013-12-04 20:29:00,
2013-12-04 15:30:00,62.9,59.0,30.03,West,264,0.0,0.0,87,0.00,,CLR,0.06,5.00,VWS V15.00,2013-12-04 20:30:00,
2013-12-04 15:35:00,63.9,59.0,30.01,WSW,255,3.0,0.0,84,0.00,,OVC018,0.06,74.00,VWS V14.01,2013-12-04 20:35:00,
2013-12-04 15:40:00,63.8,58.9,30.01,SW,220,3.0,0.0,84,0.00,,OVC022,0.06,42.00,VWS V14.01,2013-12-04 20:40:00,
2013-12-04 15:44:00,63.7,58.8,30.01,SSW,203,2.0,0.0,84,0.00,,OVC022,0.06,28.00,VWS V14.01,2013-12-04 20:44:00,
2013-12-04 15:45:00,62.5,58.9,30.02,West,275,3.0,0.0,88,0.00,,CLR,0.06,16.00,VWS V15.00,2013-12-04 20:45:00,
2013-12-04 15:49:00,63.6,58.7,30.01,SSE,163,1.0,0.0,84,0.00,,OVC022,0.06,53.00,VWS V14.01,2013-12-04 20:49:00,
2013-12-04 15:50:00,62.5,58.9,30.03,West,265,1.0,0.0,88,0.00,,CLR,0.06,12.00,VWS V15.00,2013-12-04 20:50:00,
2013-12-04 15:54:00,63.5,58.9,30.01,SSW,204,1.0,0.0,85,0.00,,OVC022,0.06,25.00,VWS V14.01,2013-12-04 20:54:00,
2013-12-04 15:55:00,62.5,58.9,30.03,West,274,0.0,0.0,88,0.00,,CLR,0.06,11.00,VWS V15.00,2013-12-04 20:55:00,
2013-12-04 15:59:00,63.4,58.8,30.02,SW,229,2.0,0.0,85,0.00,,OVC022,0.06,21.00,VWS V14.01,2013-12-04 20:59:00,
2013-12-04 16:00:00,62.4,58.8,30.03,West,274,1.0,0.0,88,0.00,,CLR,0.06,7.00,VWS V15.00,2013-12-04 21:00:00,
2013-12-04 16:04:00,63.4,59.2,30.02,West,264,1.0,0.0,86,0.00,,OVC022,0.06,18.00,VWS V14.01,2013-12-04 21:04:00,
2013-12-04 16:05:00,62.3,58.7,30.03,West,274,0.0,0.0,88,0.00,,CLR,0.06,0.00,VWS V15.00,2013-12-04 21:05:00,
2013-12-04 16:10:00,63.3,59.0,30.02,West,265,1.0,0.0,86,0.00,,OVC022,0.06,16.00,VWS V14.01,2013-12-04 21:10:00,
2013-12-04 16:14:00,63.2,59.0,30.02,West,264,0.0,0.0,86,0.00,,OVC022,0.06,11.00,VWS V14.01,2013-12-04 21:14:00,
2013-12-04 16:15:00,61.8,58.5,30.04,North,355,1.0,0.0,89,0.00,,CLR,0.06,0.00,VWS V15.00,2013-12-04 21:15:00,
2013-12-04 16:20:00,63.1,58.8,30.03,West,264,1.0,0.0,86,0.00,,OVC022,0.06,9.00,VWS V14.01,2013-12-04 21:20:00,
2013-12-04 16:25:00,63.0,59.1,30.03,West,264,0.0,0.0,87,0.00,,OVC022,0.06,12.00,VWS V14.01,2013-12-04 21:25:00,
2013-12-04 16:29:00,62.9,59.0,30.03,West,264,0.0,0.0,87,0.00,,OVC022,0.06,5.00,VWS V14.01,2013-12-04 21:29:00,
2013-12-04 16:30:00,61.1,58.2,30.04,North,355,0.0,0.0,90,0.00,,CLR,0.06,0.00,VWS V15.00,2013-12-04 21:30:00,
2013-12-04 16:35:00,62.7,58.8,30.02,East,101,4.0,0.0,87,0.00,,OVC022,0.06,18.00,VWS V14.01,2013-12-04 21:35:00,
2013-12-04 16:40:00,62.6,58.7,30.02,SE,129,3.0,0.0,87,0.00,,OVC019,0.06,16.00,VWS V14.01,2013-12-04 21:40:00,
2013-12-04 16:45:00,62.5,58.9,30.02,West,275,3.0,0.0,88,0.00,,OVC019,0.06,16.00,VWS V14.01,2013-12-04 21:45:00,
2013-12-04 16:50:00,62.5,58.9,30.03,West,265,1.0,0.0,88,0.00,,OVC019,0.06,12.00,VWS V14.01,2013-12-04 21:50:00,
2013-12-04 16:54:00,62.5,58.9,30.03,West,274,0.0,0.0,88,0.00,,OVC035,0.06,11.00,VWS V14.01,2013-12-04 21:54:00,
2013-12-04 16:55:00,60.1,57.2,30.05,ENE,65,2.0,0.0,90,0.00,,CLR,0.06,0.00,VWS V15.00,2013-12-04 21:55:00,
2013-12-04 17:00:00,62.4,58.8,30.03,West,274,1.0,0.0,88,0.00,,OVC035,0.06,7.00,VWS V14.01,2013-12-04 22:00:00,
2013-12-04 17:05:00,62.3,58.7,30.03,West,274,0.0,0.0,88,0.00,,OVC035,0.06,0.00,VWS V14.01,2013-12-04 22:05:00,
2013-12-04 17:10:00,62.1,58.5,30.04,West,274,1.0,0.0,88,0.00,,OVC035,0.06,0.00,VWS V14.01,2013-12-04 22:10:00,
2013-12-04 17:15:00,61.8,58.5,30.04,North,355,1.0,0.0,89,0.00,,OVC035,0.06,0.00,VWS V14.01,2013-12-04 22:15:00,
2013-12-04 17:20:00,61.5,58.5,30.04,North,355,0.0,0.0,90,0.00,,OVC035,0.06,0.00,VWS V14.01,2013-12-04 22:20:00,
2013-12-04 17:25:00,61.3,58.7,30.04,North,355,1.0,0.0,91,0.00,,OVC035,0.06,0.00,VWS V14.01,2013-12-04 22:25:00,
2013-12-04 17:30:00,61.1,58.5,30.04,North,355,0.0,0.0,91,0.00,,OVC035,0.06,0.00,VWS V14.01,2013-12-04 22:30:00,
2013-12-04 17:35:00,61.0,58.4,30.04,North,355,1.0,0.0,91,0.00,,-RA,0.06,0.00,VWS V14.01,2013-12-04 22:35:00,
2013-12-04 17:40:00,61.0,58.0,30.05,North,355,1.0,0.0,90,0.00,,-RA,0.06,0.00,VWS V14.01,2013-12-04 22:40:00,
2013-12-04 17:45:00,60.9,58.3,30.05,North,355,1.0,0.0,91,0.00,,-RA,0.06,0.00,VWS V14.01,2013-12-04 22:45:00,
2013-12-04 17:50:00,60.6,58.0,30.05,ENE,65,2.0,0.0,91,0.00,,-RA,0.06,0.00,VWS V14.01,2013-12-04 22:50:00,
2013-12-04 17:55:00,59.7,57.7,30.04,SE,130,3.0,0.0,93,0.00,,CLR,0.06,0.00,VWS V15.00,2013-12-04 22:55:00,
2013-12-04 17:56:00,60.0,57.4,30.05,ENE,65,2.0,0.0,91,0.00,,-RA,0.06,0.00,VWS V14.01,2013-12-04 22:56:00,
2013-12-04 18:00:00,59.6,57.9,30.04,SE,137,1.0,0.0,94,0.00,,CLR,0.06,0.00,VWS V15.00,2013-12-04 23:00:00,
2013-12-04 18:01:00,59.8,57.8,30.05,East,94,1.0,0.0,93,0.00,,-RA,0.06,0.00,VWS V14.01,2013-12-04 23:01:00,
2013-12-04 18:05:00,59.5,57.8,30.05,SE,134,1.0,0.0,94,0.00,,CLR,0.06,0.00,VWS V15.00,2013-12-04 23:05:00,
2013-12-04 18:06:00,59.8,57.8,30.05,SSE,148,3.0,0.0,93,0.00,,-RA,0.06,0.00,VWS V14.01,2013-12-04 23:06:00,
2013-12-04 18:10:00,59.4,57.7,30.05,SE,130,2.0,0.0,94,0.00,,CLR,0.06,0.00,VWS V15.00,2013-12-04 23:10:00,
2013-12-04 18:11:00,60.0,58.0,30.04,SE,136,3.0,0.0,93,0.00,,-RA,0.06,0.00,VWS V14.01,2013-12-04 23:11:00,
2013-12-04 18:15:00,59.2,57.5,30.05,SE,142,1.0,0.0,94,0.00,,CLR,0.06,0.00,VWS V15.00,2013-12-04 23:15:00,
2013-12-04 18:16:00,60.2,58.2,30.04,ESE,123,2.0,0.0,93,0.00,,-RA,0.06,0.00,VWS V14.01,2013-12-04 23:16:00,
2013-12-04 18:20:00,59.0,57.3,30.05,SE,126,1.0,0.0,94,0.00,,CLR,0.06,0.00,VWS V15.00,2013-12-04 23:20:00,
2013-12-04 18:21:00,60.2,58.2,30.04,ESE,113,2.0,0.0,93,0.00,,-RA,0.06,0.00,VWS V14.01,2013-12-04 23:21:00,
2013-12-04 18:25:00,58.7,57.0,30.06,SE,128,2.0,0.0,94,0.00,,CLR,0.06,0.00,VWS V15.00,2013-12-04 23:25:00,
2013-12-04 18:26:00,60.4,58.7,30.04,ESE,115,4.0,0.0,94,0.00,,-RA,0.06,0.00,VWS V14.01,2013-12-04 23:26:00,
2013-12-04 18:30:00,58.4,56.7,30.05,ESE,119,2.0,0.0,94,0.00,,CLR,0.06,0.00,VWS V15.00,2013-12-04 23:30:00,
2013-12-04 18:31:00,60.5,58.5,30.04,East,94,3.0,0.0,93,0.00,,-RA,0.06,0.00,VWS V14.01,2013-12-04 23:31:00,
2013-12-04 18:35:00,58.3,56.9,30.05,ESE,105,3.0,0.0,95,0.00,,CLR,0.06,0.00,VWS V15.00,2013-12-04 23:35:00,
2013-12-04 18:36:00,60.6,58.6,30.04,ESE,121,3.0,0.0,93,0.00,,OVC060,0.06,0.00,VWS V14.01,2013-12-04 23:36:00,
2013-12-04 18:40:00,58.5,57.4,30.05,ESE,123,4.0,0.0,96,0.00,,CLR,0.06,0.00,VWS V15.00,2013-12-04 23:40:00,
2013-12-04 18:41:00,60.5,58.2,30.04,SE,131,3.0,0.0,92,0.00,,OVC060,0.06,0.00,VWS V14.01,2013-12-04 23:41:00,
2013-12-04 18:45:00,58.4,57.3,30.05,SE,137,3.0,0.0,96,0.00,,CLR,0.06,0.00,VWS V15.00,2013-12-04 23:45:00,
2013-12-04 18:46:00,60.2,58.2,30.04,SE,126,3.0,0.0,93,0.00,,OVC060,0.06,0.00,VWS V14.01,2013-12-04 23:46:00,
2013-12-04 18:50:00,58.2,57.1,30.05,SE,146,2.0,0.0,96,0.00,,CLR,0.06,0.00,VWS V15.00,2013-12-04 23:50:00,
2013-12-04 18:52:00,59.8,57.8,30.04,SE,126,3.0,0.0,93,0.00,,OVC060,0.06,0.00,VWS V14.01,2013-12-04 23:52:00,
2013-12-04 18:55:00,58.5,57.4,30.05,SSE,159,1.0,0.0,96,0.00,,CLR,0.06,0.00,VWS V15.00,2013-12-04 23:55:00,
2013-12-04 18:57:00,59.6,57.9,30.04,SE,135,4.0,0.0,94,0.00,,OVC060,0.06,0.00,VWS V14.01,2013-12-04 23:57:00,
2013-12-04 19:00:00,58.9,58.0,30.05,SSE,153,4.0,0.0,97,0.00,,CLR,0.06,0.00,VWS V15.00,2013-12-05 00:00:00,
2013-12-04 19:02:00,59.5,57.8,30.04,ESE,119,2.0,0.0,94,0.00,,OVC060,0.06,0.00,VWS V14.01,2013-12-05 00:02:00,
2013-12-04 19:05:00,59.2,58.3,30.05,SE,136,3.0,0.0,97,0.00,,CLR,0.06,0.00,VWS V15.00,2013-12-05 00:05:00,
2013-12-04 19:07:00,59.4,57.7,30.05,ESE,119,2.0,0.0,94,0.00,,OVC060,0.06,0.00,VWS V14.01,2013-12-05 00:07:00,
2013-12-04 19:10:00,59.3,58.5,30.05,SSE,154,4.0,0.0,97,0.00,,CLR,0.06,0.00,VWS V15.00,2013-12-05 00:10:00,
2013-12-04 19:12:00,59.3,57.6,30.05,SE,134,2.0,0.0,94,0.00,,OVC060,0.06,0.00,VWS V14.01,2013-12-05 00:12:00,
2013-12-04 19:15:00,59.4,58.5,30.05,SSE,150,3.0,0.0,97,0.00,,CLR,0.06,0.00,VWS V15.00,2013-12-05 00:15:00,
2013-12-04 19:17:00,59.1,57.4,30.05,SE,142,1.0,0.0,94,0.00,,OVC060,0.06,0.00,VWS V14.01,2013-12-05 00:17:00,
2013-12-04 19:20:00,59.4,58.5,30.05,SSE,147,4.0,0.0,97,0.00,,CLR,0.06,0.00,VWS V15.00,2013-12-05 00:20:00,
2013-12-04 19:22:00,58.9,57.2,30.05,SE,128,1.0,0.0,94,0.00,,OVC060,0.06,0.00,VWS V14.01,2013-12-05 00:22:00,
2013-12-04 19:25:00,59.4,58.5,30.05,South,171,4.0,0.0,97,0.00,,CLR,0.06,0.00,VWS V15.00,2013-12-05 00:25:00,
2013-12-04 19:27:00,58.6,56.9,30.05,SE,134,3.0,0.0,94,0.00,,OVC060,0.06,0.00,VWS V14.01,2013-12-05 00:27:00,
2013-12-04 19:30:00,59.3,58.5,30.05,SSE,161,4.0,0.0,97,0.00,,CLR,0.06,0.00,VWS V15.00,2013-12-05 00:30:00,
2013-12-04 19:32:00,58.3,56.9,30.05,East,101,2.0,0.0,95,0.00,,OVC060,0.06,0.00,VWS V14.01,2013-12-05 00:32:00,
2013-12-04 19:35:00,59.3,58.5,30.05,SSW,211,2.0,0.0,97,0.00,,CLR,0.06,0.00,VWS V15.00,2013-12-05 00:35:00,
2013-12-04 19:37:00,58.4,57.3,30.05,ESE,121,3.0,0.0,96,0.00,,OVC060,0.06,0.00,VWS V14.01,2013-12-05 00:37:00,
2013-12-04 19:40:00,59.3,58.5,30.06,SE,134,4.0,0.0,97,0.00,,CLR,0.06,0.00,VWS V15.00,2013-12-05 00:40:00,
2013-12-04 19:42:00,58.6,57.5,30.05,SE,134,3.0,0.0,96,0.00,,OVC060,0.06,0.00,VWS V14.01,2013-12-05 00:42:00,
2013-12-04 19:45:00,59.3,58.5,30.06,SSW,207,1.0,0.0,97,0.00,,CLR,0.06,0.00,VWS V15.00,2013-12-05 00:45:00,
2013-12-04 19:47:00,58.3,56.9,30.05,SSE,148,2.0,0.0,95,0.00,,OVC060,0.06,0.00,VWS V14.01,2013-12-05 00:47:00,
2013-12-04 19:50:00,59.3,58.5,30.06,SW,215,1.0,0.0,97,0.00,,CLR,0.06,0.00,VWS V15.00,2013-12-05 00:50:00,
2013-12-04 19:52:00,58.3,57.2,30.05,SSE,148,1.0,0.0,96,0.00,,OVC060,0.06,0.00,VWS V14.01,2013-12-05 00:52:00,
2013-12-04 19:55:00,59.2,58.3,30.06,South,180,0.0,0.0,97,0.00,,CLR,0.06,0.00,VWS V15.00,2013-12-05 00:55:00,
2013-12-04 19:57:00,58.7,57.8,30.05,SSE,152,2.0,0.0,97,0.00,,OVC060,0.06,0.00,VWS V14.01,2013-12-05 00:57:00,
2013-12-04 20:00:00,59.2,58.3,30.06,ESE,117,4.0,0.0,97,0.00,,CLR,0.06,0.00,VWS V15.00,2013-12-05 01:00:00,
2013-12-04 20:02:00,59.0,58.2,30.05,SE,145,4.0,0.0,97,0.00,,OVC060,0.06,0.00,VWS V14.01,2013-12-05 01:02:00,
2013-12-04 20:05:00,59.1,58.2,30.06,SSE,163,2.0,0.0,97,0.00,,CLR,0.06,0.00,VWS V15.00,2013-12-05 01:05:00,
2013-12-04 20:07:00,59.3,58.5,30.05,SSE,159,2.0,0.0,97,0.00,,OVC060,0.06,0.00,VWS V14.01,2013-12-05 01:07:00,
2013-12-04 20:10:00,59.1,58.2,30.06,SE,139,5.0,0.0,97,0.00,,CLR,0.06,0.00,VWS V15.00,2013-12-05 01:10:00,
2013-12-04 20:12:00,59.4,58.5,30.05,SSE,156,2.0,0.0,97,0.00,,OVC060,0.06,0.00,VWS V14.01,2013-12-05 01:12:00,
2013-12-04 20:15:00,59.2,58.3,30.06,SSW,200,2.0,0.0,97,0.00,,CLR,0.06,0.00,VWS V15.00,2013-12-05 01:15:00,
2013-12-04 20:18:00,59.4,58.5,30.05,SSE,154,4.0,0.0,97,0.00,,OVC060,0.06,0.00,VWS V14.01,2013-12-05 01:18:00,
2013-12-04 20:20:00,59.2,58.3,30.06,South,173,1.0,0.0,97,0.00,,CLR,0.06,0.00,VWS V15.00,2013-12-05 01:20:00,
2013-12-04 20:23:00,59.4,58.5,30.05,SSE,153,7.0,0.0,97,0.00,,OVC060,0.06,0.00,VWS V14.01,2013-12-05 01:23:00,
2013-12-04 20:25:00,59.1,58.2,30.07,SSW,210,4.0,0.0,97,0.00,,CLR,0.06,0.00,VWS V15.00,2013-12-05 01:25:00,
2013-12-04 20:28:00,59.4,58.5,30.05,SE,145,5.0,0.0,97,0.00,,OVC060,0.06,0.00,VWS V14.01,2013-12-05 01:28:00,
2013-12-04 20:30:00,59.1,58.2,30.07,SSW,213,7.0,0.0,97,0.00,,CLR,0.06,0.00,VWS V15.00,2013-12-05 01:30:00,
2013-12-04 20:33:00,59.3,58.5,30.05,SSE,148,1.0,0.0,97,0.00,,OVC060,0.06,0.00,VWS V14.01,2013-12-05 01:33:00,
2013-12-04 20:35:00,59.2,58.3,30.07,SSE,166,5.0,0.0,97,0.00,,CLR,0.06,0.00,VWS V15.00,2013-12-05 01:35:00,
2013-12-04 20:38:00,59.3,58.5,30.06,SW,217,3.0,0.0,97,0.00,,,0.06,0.00,VWS V14.01,2013-12-05 01:38:00,
2013-12-04 20:40:00,59.3,58.5,30.07,SW,215,4.0,0.0,97,0.00,,CLR,0.06,0.00,VWS V15.00,2013-12-05 01:40:00,
2013-12-04 20:43:00,59.3,58.5,30.06,SSW,202,3.0,0.0,97,0.00,,,0.06,0.00,VWS V14.01,2013-12-05 01:43:00,
2013-12-04 20:45:00,59.3,58.5,30.07,South,183,3.0,0.0,97,0.00,,CLR,0.06,0.00,VWS V15.00,2013-12-05 01:45:00,
2013-12-04 20:48:00,59.3,58.5,30.06,SSE,167,3.0,0.0,97,0.00,,,0.06,0.00,VWS V14.01,2013-12-05 01:48:00,
2013-12-04 20:50:00,59.3,58.5,30.07,SSW,196,5.0,0.0,97,0.00,,CLR,0.06,0.00,VWS V15.00,2013-12-05 01:50:00,
2013-12-04 20:53:00,59.2,58.3,30.06,SSE,153,2.0,0.0,97,0.00,,,0.06,0.00,VWS V14.01,2013-12-05 01:53:00,
2013-12-04 20:55:00,59.3,58.5,30.07,South,180,2.0,0.0,97,0.00,,CLR,0.06,0.00,VWS V15.00,2013-12-05 01:55:00,
2013-12-04 20:58:00,59.2,58.3,30.06,SSE,156,3.0,0.0,97,0.00,,,0.06,0.00,VWS V14.01,2013-12-05 01:58:00,
2013-12-04 21:00:00,59.3,58.5,30.07,SW,228,6.0,0.0,97,0.00,,CLR,0.06,0.00,VWS V15.00,2013-12-05 02:00:00,
2013-12-04 21:03:00,59.2,58.3,30.06,SSE,159,1.0,0.0,97,0.00,,,0.06,0.00,VWS V14.01,2013-12-05 02:03:00,
2013-12-04 21:05:00,59.3,58.5,30.07,South,184,3.0,0.0,97,0.00,,CLR,0.06,0.00,VWS V15.00,2013-12-05 02:05:00,
2013-12-04 21:08:00,59.1,58.2,30.06,SSE,163,1.0,0.0,97,0.00,,,0.06,0.00,VWS V14.01,2013-12-05 02:08:00,
2013-12-04 21:10:00,59.3,58.5,30.07,SSW,205,3.0,0.0,97,0.00,,CLR,0.06,0.00,VWS V15.00,2013-12-05 02:10:00,
2013-12-04 21:13:00,59.2,58.3,30.06,South,172,2.0,0.0,97,0.00,,,0.06,0.00,VWS V14.01,2013-12-05 02:13:00,
2013-12-04 21:15:00,59.3,58.5,30.08,SSW,209,3.0,0.0,97,0.00,,CLR,0.06,0.00,VWS V15.00,2013-12-05 02:15:00,
2013-12-04 21:18:00,59.1,58.2,30.06,South,169,2.0,0.0,97,0.00,,,0.06,0.00,VWS V14.01,2013-12-05 02:18:00,
2013-12-04 21:20:00,59.3,58.5,30.08,South,190,3.0,0.0,97,0.00,,CLR,0.06,0.00,VWS V15.00,2013-12-05 02:20:00,
2013-12-04 21:23:00,59.1,58.2,30.07,SE,138,4.0,0.0,97,0.00,,,0.06,0.00,VWS V14.01,2013-12-05 02:23:00,
2013-12-04 21:25:00,59.2,58.3,30.08,SSW,211,3.0,0.0,97,0.00,,CLR,0.06,0.00,VWS V15.00,2013-12-05 02:25:00,
2013-12-04 21:28:00,59.1,58.2,30.07,South,184,3.0,0.0,97,0.00,,,0.06,0.00,VWS V14.01,2013-12-05 02:28:00,
2013-12-04 21:30:00,59.3,58.5,30.08,SSW,203,3.0,0.0,97,0.00,,CLR,0.06,0.00,VWS V15.00,2013-12-05 02:30:00,
2013-12-04 21:33:00,59.2,58.3,30.07,South,171,6.0,0.0,97,0.00,,,0.06,0.00,VWS V14.01,2013-12-05 02:33:00,
2013-12-04 21:35:00,59.3,58.5,30.08,South,175,2.0,0.0,97,0.00,,CLR,0.06,0.00,VWS V15.00,2013-12-05 02:35:00,
2013-12-04 21:38:00,59.3,58.5,30.07,SSW,212,3.0,0.0,97,0.00,,,0.06,0.00,VWS V14.01,2013-12-05 02:38:00,
2013-12-04 21:40:00,59.3,58.5,30.08,SSW,213,2.0,0.0,97,0.00,,CLR,0.06,0.00,VWS V15.00,2013-12-05 02:40:00,
2013-12-04 21:44:00,59.3,58.5,30.07,SSW,200,5.0,0.0,97,0.00,,,0.06,0.00,VWS V14.01,2013-12-05 02:44:00,
2013-12-04 21:45:00,59.3,58.5,30.08,SSW,202,3.0,0.0,97,0.00,,CLR,0.06,0.00,VWS V15.00,2013-12-05 02:45:00,
2013-12-04 21:49:00,59.3,58.5,30.07,SSE,153,3.0,0.0,97,0.00,,,0.06,0.00,VWS V14.01,2013-12-05 02:49:00,
2013-12-04 21:50:00,59.3,58.5,30.08,SSW,201,3.0,0.0,97,0.00,,CLR,0.06,0.00,VWS V15.00,2013-12-05 02:50:00,
2013-12-04 21:54:00,59.3,58.5,30.07,South,180,3.0,0.0,97,0.00,,,0.06,0.00,VWS V14.01,2013-12-05 02:54:00,
2013-12-04 21:55:00,59.3,58.5,30.08,SSW,201,2.0,0.0,97,0.00,,CLR,0.06,0.00,VWS V15.00,2013-12-05 02:55:00,
2013-12-04 21:59:00,59.3,58.5,30.07,South,182,2.0,0.0,97,0.00,,,0.06,0.00,VWS V14.01,2013-12-05 02:59:00,
2013-12-04 22:00:00,59.3,58.5,30.08,SW,217,4.0,0.0,97,0.00,,CLR,0.06,0.00,VWS V15.00,2013-12-05 03:00:00,
2013-12-04 22:04:00,59.3,58.5,30.07,South,185,4.0,0.0,97,0.00,,,0.06,0.00,VWS V14.01,2013-12-05 03:04:00,
2013-12-04 22:05:00,59.3,58.5,30.08,SW,225,2.0,0.0,97,0.00,,CLR,0.06,0.00,VWS V15.00,2013-12-05 03:05:00,
2013-12-04 22:09:00,59.3,58.5,30.07,SSW,209,5.0,0.0,97,0.00,,,0.06,0.00,VWS V14.01,2013-12-05 03:09:00,
2013-12-04 22:10:00,59.3,58.5,30.08,South,186,2.0,0.0,97,0.00,,CLR,0.06,0.00,VWS V15.00,2013-12-05 03:10:00,
2013-12-04 22:14:00,59.3,58.5,30.08,SSW,199,5.0,0.0,97,0.00,,,0.06,0.00,VWS V14.01,2013-12-05 03:14:00,
2013-12-04 22:15:00,59.3,58.5,30.09,SSW,211,5.0,0.0,97,0.00,,CLR,0.06,0.00,VWS V15.00,2013-12-05 03:15:00,
2013-12-04 22:19:00,59.3,58.5,30.08,SW,218,3.0,0.0,97,0.00,,,0.06,0.00,VWS V14.01,2013-12-05 03:19:00,
2013-12-04 22:20:00,59.3,58.5,30.09,SSW,200,3.0,0.0,97,0.00,,CLR,0.06,0.00,VWS V15.00,2013-12-05 03:20:00,
2013-12-04 22:24:00,59.3,58.5,30.08,South,184,4.0,0.0,97,0.00,,,0.06,0.00,VWS V14.01,2013-12-05 03:24:00,
2013-12-04 22:25:00,59.3,58.5,30.09,South,190,2.0,0.0,97,0.00,,CLR,0.06,0.00,VWS V15.00,2013-12-05 03:25:00,
2013-12-04 22:29:00,59.3,58.5,30.08,SSW,197,5.0,0.0,97,0.00,,,0.06,0.00,VWS V14.01,2013-12-05 03:29:00,
2013-12-04 22:30:00,59.3,58.5,30.09,SW,222,4.0,0.0,97,0.00,,CLR,0.06,0.00,VWS V15.00,2013-12-05 03:30:00,
2013-12-04 22:34:00,59.3,58.5,30.08,South,181,1.0,0.0,97,0.00,,,0.06,0.00,VWS V14.01,2013-12-05 03:34:00,
2013-12-04 22:35:00,59.3,58.5,30.09,SSW,198,4.0,0.0,97,0.00,,CLR,0.06,0.00,VWS V15.00,2013-12-05 03:35:00,
2013-12-04 22:39:00,59.3,58.5,30.08,SW,219,2.0,0.0,97,0.00,,,0.06,0.00,VWS V14.01,2013-12-05 03:39:00,
2013-12-04 22:40:00,59.3,58.5,30.09,SSW,194,2.0,0.0,97,0.00,,CLR,0.06,0.00,VWS V15.00,2013-12-05 03:40:00,
2013-12-04 22:44:00,59.3,58.5,30.08,SSW,213,4.0,0.0,97,0.00,,,0.06,0.00,VWS V14.01,2013-12-05 03:44:00,
2013-12-04 22:45:00,59.3,58.7,30.09,SSW,205,3.0,0.0,98,0.00,,CLR,0.06,0.00,VWS V15.00,2013-12-05 03:45:00,
2013-12-04 22:49:00,59.3,58.5,30.08,SSW,201,3.0,0.0,97,0.00,,,0.06,0.00,VWS V14.01,2013-12-05 03:49:00,
2013-12-04 22:50:00,59.3,58.7,30.09,South,190,4.0,0.0,98,0.00,,CLR,0.06,0.00,VWS V15.00,2013-12-05 03:50:00,
2013-12-04 22:54:00,59.3,58.5,30.08,SSW,201,2.0,0.0,97,0.00,,,0.06,0.00,VWS V14.01,2013-12-05 03:54:00,
2013-12-04 22:55:00,59.3,58.7,30.09,SSW,194,3.0,0.0,98,0.00,,CLR,0.06,0.00,VWS V15.00,2013-12-05 03:55:00,
2013-12-04 22:59:00,59.3,58.5,30.08,South,188,3.0,0.0,97,0.00,,,0.06,0.00,VWS V14.01,2013-12-05 03:59:00,
2013-12-04 23:00:00,59.2,58.6,30.10,SSW,204,2.0,0.0,98,0.00,,CLR,0.06,0.00,VWS V15.00,2013-12-05 04:00:00,
2013-12-04 23:04:00,59.3,58.5,30.08,SW,225,2.0,0.0,97,0.00,,,0.06,0.00,VWS V14.01,2013-12-05 04:04:00,
2013-12-04 23:05:00,59.2,58.6,30.10,SSW,198,2.0,0.0,98,0.00,,CLR,0.00,0.00,VWS V15.00,2013-12-05 04:05:00,
2013-12-04 23:10:00,59.3,58.5,30.08,South,186,2.0,0.0,97,0.00,,,0.06,0.00,VWS V14.01,2013-12-05 04:10:00,
2013-12-04 23:15:00,59.3,58.5,30.09,SSW,211,5.0,0.0,97,0.00,,,0.06,0.00,VWS V14.01,2013-12-05 04:15:00,
2013-12-04 23:20:00,59.3,58.5,30.09,SSW,200,3.0,0.0,97,0.00,,,0.06,0.00,VWS V14.01,2013-12-05 04:20:00,
2013-12-04 23:25:00,59.3,58.5,30.09,SSW,201,3.0,0.0,97,0.00,,,0.06,0.00,VWS V14.01,2013-12-05 04:25:00,
2013-12-04 23:30:00,59.3,58.5,30.09,SW,226,5.0,0.0,97,0.00,,,0.06,0.00,VWS V14.01,2013-12-05 04:30:00,
2013-12-04 23:35:00,59.3,58.5,30.09,SSW,202,5.0,0.0,97,0.00,,,0.06,0.00,VWS V14.01,2013-12-05 04:35:00,
2013-12-04 23:40:00,59.3,58.5,30.09,SSW,195,2.0,0.0,97,0.00,,,0.06,0.00,VWS V14.01,2013-12-05 04:40:00,
2013-12-04 23:45:00,59.3,58.7,30.09,SSW,205,6.0,0.0,98,0.00,,,0.06,0.00,VWS V14.01,2013-12-05 04:45:00,
2013-12-04 23:50:00,59.3,58.7,30.09,SW,222,6.0,0.0,98,0.00,,,0.06,0.00,VWS V14.01,2013-12-05 04:50:00,
2013-12-04 23:55:00,59.3,58.7,30.10,SSW,204,3.0,0.0,98,0.00,,,0.06,0.00,VWS V14.01,2013-12-05 04:55:00,